Time;durP1;ratioP1;P1;durP2;ratioP2;P2;SDS_P1;SDS_P2;PMS_P1;PMS_P2;Temp;Humidity;BMP_temperature;BMP_pressure;BME280_temperature;BME280_humidity;BME280_pressure;Samples;Min_cycle;Max_cycle;Signal;HPM_P1;HPM_P2
2022/04/16 00:01:35;;;;;;;21.07;16.30;;;;;;;;;;5043256;28;20621;-77
2022/04/16 00:04:03;;;;;;;21.70;15.60;;;;;;;;;;5047699;28;20207;-74
2022/04/16 00:06:32;;;;;;;20.10;15.77;;;;;;;;;;5051862;28;20239;-74
2022/04/16 00:09:02;;;;;;;21.20;16.20;;;;;;;;;;5052892;28;20221;-75
2022/04/16 00:11:38;;;;;;;19.67;16.80;;;;;;;;;;5051868;28;20681;-76
2022/04/16 00:14:07;;;;;;;21.23;15.77;;;;;;;;;;5053249;28;20221;-76
2022/04/16 00:16:35;;;;;;;20.13;15.93;;;;;;;;;;5052682;28;20613;-76
2022/04/16 00:19:04;;;;;;;20.97;17.10;;;;;;;;;;5053010;28;20199;-75
2022/04/16 00:21:35;;;;;;;22.40;18.00;;;;;;;;;;5050424;28;20215;-76
2022/04/16 00:24:07;;;;;;;24.53;16.83;;;;;;;;;;5049712;28;20577;-74
2022/04/16 00:26:38;;;;;;;23.87;17.83;;;;;;;;;;5052186;28;20225;-74
2022/04/16 00:29:07;;;;;;;24.07;18.40;;;;;;;;;;5040337;28;20563;-74
2022/04/16 00:31:36;;;;;;;27.37;18.70;;;;;;;;;;5052867;28;20211;-74
2022/04/16 00:34:05;;;;;;;26.10;18.87;;;;;;;;;;5052166;28;20210;-77
2022/04/16 00:36:33;;;;;;;24.70;17.77;;;;;;;;;;5052265;28;20187;-76
2022/04/16 00:39:02;;;;;;;27.67;18.83;;;;;;;;;;5052390;28;20260;-75
2022/04/16 00:41:32;;;;;;;25.83;18.97;;;;;;;;;;5049025;28;20215;-74
2022/04/16 00:44:00;;;;;;;21.97;18.07;;;;;;;;;;5050843;28;20787;-76
2022/04/16 00:46:29;;;;;;;26.47;18.97;;;;;;;;;;5052406;28;20207;-74
2022/04/16 00:48:57;;;;;;;24.73;18.67;;;;;;;;;;5051458;28;20202;-75
2022/04/16 00:51:26;;;;;;;27.53;19.13;;;;;;;;;;5035451;28;20241;-73
2022/04/16 00:53:55;;;;;;;29.63;18.97;;;;;;;;;;5046777;28;20261;-74
2022/04/16 00:56:24;;;;;;;29.03;20.07;;;;;;;;;;5050857;28;20203;-76
2022/04/16 00:58:54;;;;;;;26.63;19.63;;;;;;;;;;5037002;28;20207;-76
2022/04/16 01:01:22;;;;;;;30.93;21.00;;;;;;;;;;5032392;28;20663;-75
2022/04/16 01:04:13;;;;;;;28.63;19.93;;;;;;;;;;5047908;28;20531;-76
2022/04/16 01:06:48;;;;;;;30.93;20.73;;;;;;;;;;5047164;28;20612;-75
2022/04/16 01:09:17;;;;;;;29.57;21.63;;;;;;;;;;5045651;28;20203;-76
2022/04/16 01:11:45;;;;;;;28.63;21.47;;;;;;;;;;5051063;28;20206;-74
2022/04/16 01:14:18;;;;;;;30.50;20.67;;;;;;;;;;5048763;28;20199;-75
2022/04/16 01:16:47;;;;;;;31.07;20.53;;;;;;;;;;5049230;28;20212;-73
2022/04/16 01:19:15;;;;;;;30.43;19.83;;;;;;;;;;5035482;28;20202;-74
2022/04/16 01:21:46;;;;;;;29.93;19.30;;;;;;;;;;5051942;28;20664;-74
2022/04/16 01:24:15;;;;;;;25.67;17.83;;;;;;;;;;5052912;28;20603;-76
2022/04/16 01:26:44;;;;;;;28.23;17.40;;;;;;;;;;5051623;28;20234;-75
2022/04/16 01:29:12;;;;;;;25.97;16.73;;;;;;;;;;5051301;28;20237;-75
2022/04/16 01:31:41;;;;;;;23.83;16.20;;;;;;;;;;5049129;28;20245;-75
2022/04/16 01:34:09;;;;;;;21.47;15.47;;;;;;;;;;5051557;28;20261;-74
2022/04/16 01:36:38;;;;;;;21.63;14.93;;;;;;;;;;5049233;28;20250;-75
2022/04/16 01:39:07;;;;;;;19.47;13.40;;;;;;;;;;5043164;28;20254;-76
2022/04/16 01:41:37;;;;;;;17.17;12.83;;;;;;;;;;5051278;28;20211;-75
2022/04/16 01:44:05;;;;;;;19.50;13.40;;;;;;;;;;5051529;28;20613;-76
2022/04/16 01:46:36;;;;;;;18.50;13.20;;;;;;;;;;5051052;28;20230;-75
2022/04/16 01:49:05;;;;;;;17.70;12.53;;;;;;;;;;5050722;28;20313;-75
2022/04/16 01:51:34;;;;;;;19.83;13.23;;;;;;;;;;5051482;28;20268;-74
2022/04/16 01:54:02;;;;;;;15.90;12.53;;;;;;;;;;5051085;28;20191;-74
2022/04/16 01:56:31;;;;;;;19.17;12.97;;;;;;;;;;5050525;28;20253;-76
2022/04/16 01:59:01;;;;;;;16.40;11.40;;;;;;;;;;5048066;28;20195;-75
2022/04/16 02:01:30;;;;;;;15.23;11.13;;;;;;;;;;5048496;28;20200;-76
2022/04/16 02:03:59;;;;;;;15.73;11.13;;;;;;;;;;5050045;28;20196;-76
2022/04/16 02:06:28;;;;;;;14.83;11.10;;;;;;;;;;5051150;28;20269;-75
2022/04/16 02:08:56;;;;;;;17.80;11.27;;;;;;;;;;5054683;28;20203;-75
2022/04/16 02:11:24;;;;;;;15.70;10.80;;;;;;;;;;5048380;28;20214;-76
2022/04/16 02:13:53;;;;;;;18.03;11.77;;;;;;;;;;5051539;28;20650;-75
2022/04/16 02:16:23;;;;;;;16.43;11.50;;;;;;;;;;5055154;28;20273;-74
2022/04/16 02:18:51;;;;;;;16.97;11.37;;;;;;;;;;5054750;28;20221;-76
2022/04/16 02:21:22;;;;;;;16.87;10.53;;;;;;;;;;5055808;28;20200;-73
2022/04/16 02:23:52;;;;;;;13.77;9.90;;;;;;;;;;5053786;28;20225;-74
2022/04/16 02:26:57;;;;;;;14.33;10.03;;;;;;;;;;5055426;28;20232;-74
2022/04/16 02:29:25;;;;;;;14.43;9.97;;;;;;;;;;5052700;28;20191;-76
2022/04/16 02:31:55;;;;;;;14.17;9.13;;;;;;;;;;5045251;28;20204;-75
2022/04/16 02:34:23;;;;;;;14.67;10.33;;;;;;;;;;5050547;28;20253;-76
2022/04/16 02:36:52;;;;;;;16.57;10.37;;;;;;;;;;5054904;28;20252;-75
2022/04/16 02:39:20;;;;;;;14.07;9.47;;;;;;;;;;5052482;28;20199;-76
2022/04/16 02:41:49;;;;;;;14.27;10.50;;;;;;;;;;5054391;28;20218;-75
2022/04/16 02:47:08;;;;;;;11.57;7.40;;;;;;;;;;5036630;28;20700;-76
2022/04/16 02:49:38;;;;;;;10.20;7.57;;;;;;;;;;5040960;28;20309;-76
2022/04/16 02:52:07;;;;;;;10.60;7.07;;;;;;;;;;5054426;28;20199;-74
2022/04/16 02:54:37;;;;;;;11.23;6.60;;;;;;;;;;5053674;28;20207;-75
2022/04/16 02:57:05;;;;;;;8.20;5.90;;;;;;;;;;5052124;28;20637;-77
2022/04/16 02:59:35;;;;;;;7.53;5.80;;;;;;;;;;5054817;28;20203;-74
2022/04/16 03:02:05;;;;;;;8.23;5.90;;;;;;;;;;5051393;28;20206;-75
2022/04/16 03:04:34;;;;;;;8.80;5.73;;;;;;;;;;5053600;28;20199;-75
2022/04/16 03:07:03;;;;;;;9.87;6.00;;;;;;;;;;5053970;28;20231;-74
2022/04/16 03:09:31;;;;;;;8.93;5.60;;;;;;;;;;5054584;28;20277;-76
2022/04/16 03:11:59;;;;;;;8.83;5.77;;;;;;;;;;5053578;28;20689;-76
2022/04/16 03:17:33;;;;;;;8.43;5.67;;;;;;;;;;5018471;28;20231;-75
2022/04/16 03:20:04;;;;;;;8.87;5.63;;;;;;;;;;5054127;28;20630;-76
2022/04/16 03:22:33;;;;;;;6.70;5.47;;;;;;;;;;5049604;28;20203;-75
2022/04/16 03:25:03;;;;;;;9.07;5.83;;;;;;;;;;5053309;28;20583;-75
2022/04/16 03:27:32;;;;;;;8.70;5.70;;;;;;;;;;5046143;28;20235;-75
2022/04/16 03:30:01;;;;;;;6.70;4.97;;;;;;;;;;5035990;28;20667;-75
2022/04/16 03:32:32;;;;;;;8.30;5.10;;;;;;;;;;5053562;28;20264;-74
2022/04/16 03:35:11;;;;;;;7.63;5.10;;;;;;;;;;5054326;28;20184;-74
2022/04/16 03:37:40;;;;;;;7.53;5.60;;;;;;;;;;5049666;28;20617;-76
2022/04/16 03:40:09;;;;;;;7.17;5.20;;;;;;;;;;5052777;28;20244;-75
2022/04/16 03:42:45;;;;;;;7.20;5.33;;;;;;;;;;5053686;28;20211;-76
2022/04/16 03:45:18;;;;;;;7.63;5.27;;;;;;;;;;5053720;28;20641;-75
2022/04/16 03:47:48;;;;;;;9.20;5.33;;;;;;;;;;5054693;28;20261;-75
2022/04/16 03:50:17;;;;;;;9.03;5.40;;;;;;;;;;5053067;28;20290;-76
2022/04/16 03:52:47;;;;;;;8.40;5.30;;;;;;;;;;5053549;28;20203;-74
2022/04/16 04:00:49;;;;;;;7.67;4.50;;;;;;;;;;5053558;28;20278;-75
2022/04/16 04:03:19;;;;;;;6.50;4.60;;;;;;;;;;5054249;28;20253;-73
2022/04/16 04:05:49;;;;;;;6.70;4.57;;;;;;;;;;5040104;28;20213;-77
2022/04/16 04:08:18;;;;;;;8.00;4.33;;;;;;;;;;5063596;28;20592;-75
2022/04/16 04:10:47;;;;;;;6.43;4.80;;;;;;;;;;5073214;28;20209;-75
2022/04/16 04:13:16;;;;;;;6.13;4.20;;;;;;;;;;5062906;28;20249;-74
2022/04/16 04:15:45;;;;;;;6.27;4.37;;;;;;;;;;5052559;28;20237;-76
2022/04/16 04:18:14;;;;;;;6.27;4.23;;;;;;;;;;5051784;28;20265;-74
2022/04/16 04:20:43;;;;;;;6.17;4.43;;;;;;;;;;5052181;28;20209;-74
2022/04/16 04:23:12;;;;;;;5.20;4.30;;;;;;;;;;5052225;28;20669;-76
2022/04/16 04:25:40;;;;;;;6.73;4.30;;;;;;;;;;5052563;28;20206;-73
2022/04/16 04:28:10;;;;;;;4.53;3.93;;;;;;;;;;5051872;28;20233;-73
2022/04/16 04:30:38;;;;;;;6.90;4.20;;;;;;;;;;5052190;28;20213;-76
2022/04/16 04:33:07;;;;;;;4.93;3.80;;;;;;;;;;5052373;28;20210;-74
2022/04/16 04:35:35;;;;;;;6.20;4.30;;;;;;;;;;5052986;28;20201;-75
2022/04/16 04:38:06;;;;;;;5.37;3.50;;;;;;;;;;5051902;28;20270;-75
2022/04/16 04:40:34;;;;;;;5.53;3.67;;;;;;;;;;5053090;28;20242;-74
2022/04/16 04:43:03;;;;;;;6.93;4.07;;;;;;;;;;5050294;28;20670;-74
2022/04/16 04:45:31;;;;;;;5.63;3.50;;;;;;;;;;5052374;28;20213;-75
2022/04/16 04:48:00;;;;;;;4.57;3.47;;;;;;;;;;5051775;28;20279;-76
2022/04/16 04:50:28;;;;;;;6.47;3.53;;;;;;;;;;5051219;28;20206;-75
2022/04/16 04:52:57;;;;;;;6.33;3.53;;;;;;;;;;5051771;28;20209;-76
2022/04/16 04:55:27;;;;;;;5.20;3.40;;;;;;;;;;5052641;28;20247;-76
2022/04/16 04:57:55;;;;;;;4.10;3.20;;;;;;;;;;5049530;28;20224;-74
2022/04/16 05:00:24;;;;;;;5.60;3.57;;;;;;;;;;5051904;28;20216;-74
2022/04/16 05:02:52;;;;;;;4.53;3.83;;;;;;;;;;5052702;28;20257;-73
2022/04/16 05:05:21;;;;;;;5.47;3.57;;;;;;;;;;5052112;28;20205;-75
2022/04/16 05:08:01;;;;;;;3.97;3.57;;;;;;;;;;5052365;28;20225;-74
2022/04/16 05:10:30;;;;;;;4.43;3.40;;;;;;;;;;5051334;28;20693;-76
2022/04/16 05:12:59;;;;;;;7.83;3.87;;;;;;;;;;5039743;28;20206;-74
2022/04/16 05:15:29;;;;;;;7.03;3.60;;;;;;;;;;5051214;28;20235;-76
2022/04/16 05:17:57;;;;;;;5.67;4.00;;;;;;;;;;5042142;28;20229;-73
2022/04/16 05:20:25;;;;;;;5.17;3.67;;;;;;;;;;5052894;28;20573;-75
2022/04/16 05:22:54;;;;;;;4.23;3.20;;;;;;;;;;5049665;28;20224;-75
2022/04/16 05:25:22;;;;;;;7.83;3.77;;;;;;;;;;5045816;28;20205;-75
2022/04/16 05:27:52;;;;;;;4.40;3.50;;;;;;;;;;5050315;28;20283;-76
2022/04/16 05:30:29;;;;;;;5.00;3.40;;;;;;;;;;5051839;28;20199;-74
2022/04/16 05:33:02;;;;;;;7.00;3.80;;;;;;;;;;5048316;28;20935;-74
2022/04/16 05:35:31;;;;;;;5.57;3.67;;;;;;;;;;5049412;28;20206;-75
2022/04/16 05:38:00;;;;;;;3.83;3.20;;;;;;;;;;5051577;28;20249;-74
2022/04/16 05:40:30;;;;;;;5.37;3.40;;;;;;;;;;5050888;28;20294;-74
2022/04/16 05:42:59;;;;;;;4.20;3.70;;;;;;;;;;5055371;28;20209;-74
2022/04/16 05:45:28;;;;;;;5.30;3.63;;;;;;;;;;5055224;28;20250;-74
2022/04/16 05:47:57;;;;;;;5.13;3.63;;;;;;;;;;5056030;28;20281;-76
2022/04/16 05:50:25;;;;;;;6.17;4.27;;;;;;;;;;5050884;28;20218;-77
2022/04/16 05:52:54;;;;;;;6.10;3.63;;;;;;;;;;5052982;28;20683;-75
2022/04/16 05:55:22;;;;;;;5.40;3.60;;;;;;;;;;5055821;28;20735;-73
2022/04/16 05:57:51;;;;;;;5.07;3.27;;;;;;;;;;5048919;28;20228;-75
2022/04/16 06:00:21;;;;;;;6.53;3.90;;;;;;;;;;5050863;28;20197;-74
2022/04/16 06:02:50;;;;;;;4.57;3.40;;;;;;;;;;5056674;28;20207;-74
2022/04/16 06:05:21;;;;;;;4.87;3.57;;;;;;;;;;5040097;28;20216;-75
2022/04/16 06:07:49;;;;;;;4.87;3.67;;;;;;;;;;5055662;28;20273;-76
2022/04/16 06:10:18;;;;;;;6.23;4.00;;;;;;;;;;5054795;28;20265;-76
2022/04/16 06:12:46;;;;;;;5.43;3.83;;;;;;;;;;5053078;28;20260;-77
2022/04/16 06:15:15;;;;;;;5.53;4.40;;;;;;;;;;5045215;28;20726;-75
2022/04/16 06:17:45;;;;;;;6.83;4.23;;;;;;;;;;5055949;28;20234;-77
2022/04/16 06:20:14;;;;;;;5.17;4.23;;;;;;;;;;5055337;28;20554;-76
2022/04/16 06:22:43;;;;;;;5.57;3.80;;;;;;;;;;5055548;28;20201;-75
2022/04/16 06:25:12;;;;;;;8.13;4.53;;;;;;;;;;5035697;28;20194;-76
2022/04/16 06:28:04;;;;;;;7.00;4.20;;;;;;;;;;5055031;28;20608;-76
2022/04/16 06:30:41;;;;;;;6.43;4.37;;;;;;;;;;5055809;28;20191;-76
2022/04/16 06:33:11;;;;;;;4.87;4.10;;;;;;;;;;5055569;28;20208;-77
2022/04/16 06:35:40;;;;;;;6.50;4.47;;;;;;;;;;5055475;28;20206;-75
2022/04/16 06:38:09;;;;;;;5.60;4.63;;;;;;;;;;5055945;28;20276;-75
2022/04/16 06:40:37;;;;;;;6.30;4.60;;;;;;;;;;5053994;28;20598;-76
2022/04/16 06:43:06;;;;;;;4.80;4.10;;;;;;;;;;5052523;28;20215;-75
2022/04/16 06:45:34;;;;;;;4.57;3.77;;;;;;;;;;5050558;28;20218;-76
2022/04/16 06:48:03;;;;;;;4.87;3.90;;;;;;;;;;5046312;28;20315;-76
2022/04/16 06:50:33;;;;;;;6.93;4.00;;;;;;;;;;5054789;28;20264;-76
2022/04/16 06:53:02;;;;;;;5.47;3.67;;;;;;;;;;5054442;28;20214;-75
2022/04/16 06:55:30;;;;;;;5.37;3.23;;;;;;;;;;5064446;28;20261;-75
2022/04/16 06:57:59;;;;;;;5.13;2.97;;;;;;;;;;5054490;28;20226;-76
2022/04/16 07:00:27;;;;;;;5.20;3.00;;;;;;;;;;5052546;28;20202;-75
2022/04/16 07:02:56;;;;;;;4.13;3.10;;;;;;;;;;5053655;28;20211;-77
2022/04/16 07:05:25;;;;;;;4.07;2.80;;;;;;;;;;5054957;28;20198;-76
2022/04/16 07:08:04;;;;;;;4.67;3.33;;;;;;;;;;5047091;28;20310;-77
2022/04/16 07:10:50;;;;;;;4.43;2.77;;;;;;;;;;5035293;28;20212;-76
2022/04/16 07:13:19;;;;;;;3.10;2.20;;;;;;;;;;5048799;28;20203;-77
2022/04/16 07:15:47;;;;;;;3.00;2.10;;;;;;;;;;5053616;28;20684;-75
2022/04/16 07:18:16;;;;;;;5.07;2.30;;;;;;;;;;5033700;28;20227;-76
2022/04/16 07:20:44;;;;;;;3.03;2.03;;;;;;;;;;5042395;28;20448;-76
2022/04/16 07:23:14;;;;;;;4.33;1.90;;;;;;;;;;5053534;28;20207;-74
2022/04/16 07:25:43;;;;;;;3.30;2.00;;;;;;;;;;5053617;28;20245;-75
2022/04/16 07:28:12;;;;;;;3.23;2.00;;;;;;;;;;5052873;28;20225;-77
2022/04/16 07:30:41;;;;;;;3.17;1.97;;;;;;;;;;5053834;28;20268;-76
2022/04/16 07:33:09;;;;;;;3.73;1.90;;;;;;;;;;5043427;28;20188;-76
2022/04/16 07:35:38;;;;;;;3.67;1.57;;;;;;;;;;5042748;28;20724;-74
2022/04/16 07:38:07;;;;;;;2.93;1.80;;;;;;;;;;5051324;28;21205;-76
2022/04/16 07:40:37;;;;;;;2.57;2.03;;;;;;;;;;5047496;28;20218;-74
2022/04/16 07:43:06;;;;;;;3.40;1.80;;;;;;;;;;5043428;28;20598;-75
2022/04/16 07:45:35;;;;;;;3.97;1.97;;;;;;;;;;5052507;28;20199;-74
2022/04/16 07:48:10;;;;;;;4.47;2.10;;;;;;;;;;5039435;28;20729;-75
2022/04/16 07:50:48;;;;;;;2.23;1.90;;;;;;;;;;5040296;28;20216;-75
2022/04/16 07:53:16;;;;;;;2.93;2.07;;;;;;;;;;5044132;28;20199;-75
2022/04/16 07:55:46;;;;;;;2.13;1.83;;;;;;;;;;5045981;28;20207;-74
2022/04/16 07:58:15;;;;;;;1.47;1.37;;;;;;;;;;5052320;28;20630;-75
2022/04/16 08:00:43;;;;;;;4.77;1.67;;;;;;;;;;5049888;28;20191;-75
2022/04/16 08:03:12;;;;;;;2.97;1.57;;;;;;;;;;5049411;28;20570;-76
2022/04/16 08:05:41;;;;;;;2.30;1.80;;;;;;;;;;5038431;28;20208;-74
2022/04/16 08:08:10;;;;;;;2.23;1.40;;;;;;;;;;5045608;28;20753;-75
2022/04/16 08:10:39;;;;;;;2.27;1.50;;;;;;;;;;5051033;28;20325;-75
2022/04/16 08:13:09;;;;;;;3.40;1.80;;;;;;;;;;5054267;28;20676;-74
2022/04/16 08:15:39;;;;;;;1.63;1.53;;;;;;;;;;5050941;28;20227;-74
2022/04/16 08:18:08;;;;;;;1.60;1.30;;;;;;;;;;5052266;28;20242;-74
2022/04/16 08:20:36;;;;;;;2.20;1.50;;;;;;;;;;5042025;28;20203;-74
2022/04/16 08:23:06;;;;;;;2.17;1.23;;;;;;;;;;5050666;28;20203;-75
2022/04/16 08:25:47;;;;;;;2.27;1.43;;;;;;;;;;5052734;28;20265;-75
2022/04/16 08:28:17;;;;;;;2.20;1.50;;;;;;;;;;5046707;28;20628;-75
2022/04/16 08:30:45;;;;;;;2.67;1.37;;;;;;;;;;5051608;28;20219;-74
2022/04/16 08:33:15;;;;;;;3.03;1.50;;;;;;;;;;5050205;28;20207;-75
2022/04/16 08:35:43;;;;;;;14.60;3.00;;;;;;;;;;5037087;28;20196;-74
2022/04/16 08:38:12;;;;;;;3.67;1.70;;;;;;;;;;5042421;28;20219;-74
2022/04/16 08:40:41;;;;;;;3.17;1.80;;;;;;;;;;5052725;28;20199;-76
2022/04/16 08:43:14;;;;;;;2.67;1.60;;;;;;;;;;5049190;28;20210;-74
2022/04/16 08:45:45;;;;;;;14.50;5.10;;;;;;;;;;5052614;28;20199;-74
2022/04/16 08:48:15;;;;;;;3.27;1.90;;;;;;;;;;5049730;28;20225;-76
2022/04/16 08:50:44;;;;;;;11.73;5.47;;;;;;;;;;5051341;28;20712;-77
2022/04/16 08:53:12;;;;;;;2.30;1.50;;;;;;;;;;5050108;28;20207;-73
2022/04/16 08:55:41;;;;;;;1.40;1.30;;;;;;;;;;5047308;28;20203;-73
2022/04/16 08:58:11;;;;;;;2.83;1.70;;;;;;;;;;5047097;28;20229;-75
2022/04/16 09:00:40;;;;;;;3.47;1.73;;;;;;;;;;5051563;28;20203;-74
2022/04/16 09:03:13;;;;;;;1.73;1.60;;;;;;;;;;5050132;28;20207;-75
2022/04/16 09:05:41;;;;;;;1.80;1.27;;;;;;;;;;5046272;28;20215;-74
2022/04/16 09:08:10;;;;;;;2.37;1.50;;;;;;;;;;5051342;28;20938;-75
2022/04/16 09:10:41;;;;;;;1.53;1.10;;;;;;;;;;5051249;28;20264;-75
2022/04/16 09:13:12;;;;;;;3.40;1.60;;;;;;;;;;5051858;28;20245;-76
2022/04/16 09:15:41;;;;;;;1.80;1.40;;;;;;;;;;5045666;28;20203;-75
2022/04/16 09:18:13;;;;;;;2.10;1.40;;;;;;;;;;5052118;28;20306;-74
2022/04/16 09:20:42;;;;;;;1.70;1.23;;;;;;;;;;5051271;28;20203;-74
2022/04/16 09:23:19;;;;;;;2.13;1.70;;;;;;;;;;5052500;28;20192;-74
2022/04/16 09:25:48;;;;;;;1.53;1.43;;;;;;;;;;5041210;28;20199;-73
2022/04/16 09:28:17;;;;;;;2.17;1.50;;;;;;;;;;5044523;28;20246;-74
2022/04/16 09:30:50;;;;;;;1.83;1.37;;;;;;;;;;5050284;28;20229;-75
2022/04/16 09:33:20;;;;;;;2.17;1.60;;;;;;;;;;5047714;28;20199;-75
2022/04/16 09:35:49;;;;;;;1.60;1.40;;;;;;;;;;5043891;28;20659;-75
2022/04/16 09:38:17;;;;;;;1.80;1.40;;;;;;;;;;5047057;28;20234;-75
2022/04/16 09:40:47;;;;;;;2.43;1.50;;;;;;;;;;5043259;28;20591;-74
2022/04/16 09:43:16;;;;;;;2.30;1.90;;;;;;;;;;5050046;28;20203;-74
2022/04/16 09:45:44;;;;;;;1.70;1.40;;;;;;;;;;5049159;28;20199;-75
2022/04/16 09:48:13;;;;;;;1.60;1.40;;;;;;;;;;5042286;28;20223;-75
2022/04/16 09:50:44;;;;;;;3.03;1.70;;;;;;;;;;5044281;28;20586;-75
2022/04/16 09:53:13;;;;;;;2.10;1.70;;;;;;;;;;5042470;28;20199;-75
2022/04/16 09:55:42;;;;;;;2.00;1.60;;;;;;;;;;5041873;28;20196;-74
2022/04/16 09:58:13;;;;;;;2.63;1.67;;;;;;;;;;5040977;28;20220;-75
2022/04/16 10:00:44;;;;;;;2.83;1.60;;;;;;;;;;5044928;28;20252;-76
2022/04/16 10:03:32;;;;;;;2.57;1.50;;;;;;;;;;4697887;28;10000027;-75
2022/04/16 10:06:03;;;;;;;2.30;1.80;;;;;;;;;;5047174;28;20203;-75
2022/04/16 10:08:34;;;;;;;2.17;1.60;;;;;;;;;;5045404;28;20246;-74
2022/04/16 10:11:04;;;;;;;3.03;1.70;;;;;;;;;;5049355;28;20330;-73
2022/04/16 10:13:36;;;;;;;1.93;1.60;;;;;;;;;;5050246;28;20213;-74
2022/04/16 10:16:10;;;;;;;2.37;1.60;;;;;;;;;;5047137;28;20725;-75
2022/04/16 10:18:40;;;;;;;2.73;1.70;;;;;;;;;;5047482;28;20226;-75
2022/04/16 10:21:15;;;;;;;2.23;1.57;;;;;;;;;;5044931;28;20261;-75
2022/04/16 10:23:46;;;;;;;2.63;1.60;;;;;;;;;;5052243;28;20264;-75
2022/04/16 10:26:15;;;;;;;1.70;1.40;;;;;;;;;;5051018;28;20558;-75
2022/04/16 10:28:44;;;;;;;2.37;1.50;;;;;;;;;;5062545;28;20199;-75
2022/04/16 10:31:23;;;;;;;1.70;1.60;;;;;;;;;;5056108;28;20591;-76
2022/04/16 10:33:59;;;;;;;2.47;1.37;;;;;;;;;;5054718;28;20234;-75
2022/04/16 10:36:32;;;;;;;2.30;1.50;;;;;;;;;;5054892;28;20221;-75
2022/04/16 10:39:01;;;;;;;1.43;1.33;;;;;;;;;;5055220;28;20210;-75
2022/04/16 10:41:32;;;;;;;2.17;1.50;;;;;;;;;;5054434;28;20292;-75
2022/04/16 10:44:01;;;;;;;1.50;1.40;;;;;;;;;;5044178;28;20200;-74
2022/04/16 10:46:44;;;;;;;2.33;1.80;;;;;;;;;;5053396;28;20203;-75
2022/04/16 10:52:21;;;;;;;2.53;1.60;;;;;;;;;;5051500;28;20269;-74
2022/04/16 10:54:49;;;;;;;4.37;1.40;;;;;;;;;;5045024;28;20203;-75
2022/04/16 10:57:22;;;;;;;1.90;1.33;;;;;;;;;;5050650;28;20222;-76
2022/04/16 10:59:50;;;;;;;1.93;1.50;;;;;;;;;;5050121;28;20203;-75
2022/04/16 11:02:20;;;;;;;2.07;1.40;;;;;;;;;;5047648;28;20234;-74
2022/04/16 11:05:00;;;;;;;1.90;1.40;;;;;;;;;;5045581;28;20212;-75
2022/04/16 11:07:31;;;;;;;1.47;1.27;;;;;;;;;;5052362;28;20281;-75
2022/04/16 11:09:59;;;;;;;2.33;1.50;;;;;;;;;;5053130;28;20265;-76
2022/04/16 11:12:29;;;;;;;1.83;1.60;;;;;;;;;;5053562;28;20752;-75
2022/04/16 11:14:59;;;;;;;1.93;1.60;;;;;;;;;;5052401;28;20227;-75
2022/04/16 11:17:27;;;;;;;2.40;1.67;;;;;;;;;;5053160;28;20222;-75
2022/04/16 11:20:02;;;;;;;2.60;1.60;;;;;;;;;;5053588;28;20268;-74
2022/04/16 11:22:33;;;;;;;3.93;1.80;;;;;;;;;;5042180;28;20571;-75
2022/04/16 11:25:06;;;;;;;2.80;1.70;;;;;;;;;;5051139;28;20203;-74
2022/04/16 11:35:57;;;;;;;1.87;1.30;;;;;;;;;;5047323;28;20211;-74
2022/04/16 11:38:29;;;;;;;1.70;1.53;;;;;;;;;;5038284;28;20223;-75
2022/04/16 11:40:59;;;;;;;2.70;1.43;;;;;;;;;;5050836;28;20203;-75
2022/04/16 11:43:29;;;;;;;3.17;1.53;;;;;;;;;;5051083;28;20254;-74
2022/04/16 11:45:58;;;;;;;1.97;1.50;;;;;;;;;;5053502;28;20612;-75
2022/04/16 11:48:27;;;;;;;2.00;1.47;;;;;;;;;;5054014;28;20789;-74
2022/04/16 11:50:55;;;;;;;3.27;1.40;;;;;;;;;;5054729;28;20265;-74
2022/04/16 11:53:24;;;;;;;1.80;1.20;;;;;;;;;;5039692;28;20211;-74
2022/04/16 11:56:01;;;;;;;2.10;1.47;;;;;;;;;;5035736;28;20195;-75
2022/04/16 11:58:30;;;;;;;1.47;1.37;;;;;;;;;;5037387;28;20301;-74
2022/04/16 12:00:58;;;;;;;2.40;1.60;;;;;;;;;;5053742;28;20203;-74
2022/04/16 12:03:36;;;;;;;3.30;1.60;;;;;;;;;;5043469;28;20679;-74
2022/04/16 12:06:08;;;;;;;2.80;1.50;;;;;;;;;;4697194;28;10000484;-74
2022/04/16 12:08:37;;;;;;;1.83;1.50;;;;;;;;;;5050713;28;20257;-74
2022/04/16 12:11:07;;;;;;;1.63;1.30;;;;;;;;;;5051274;28;20662;-74
2022/04/16 12:13:36;;;;;;;2.20;1.40;;;;;;;;;;5051258;28;20213;-74
2022/04/16 12:16:06;;;;;;;2.10;1.47;;;;;;;;;;5050827;28;20687;-74
2022/04/16 12:18:38;;;;;;;2.43;1.60;;;;;;;;;;5033775;28;20302;-74
2022/04/16 12:21:08;;;;;;;2.57;1.67;;;;;;;;;;5049663;28;20199;-75
2022/04/16 12:23:38;;;;;;;2.70;1.67;;;;;;;;;;5040711;28;20195;-74
2022/04/16 12:26:09;;;;;;;3.78;2.03;;;;;;;;;;5045339;28;20257;-75
2022/04/16 12:28:38;;;;;;;2.47;1.35;;;;;;;;;;5051113;28;20215;-75
2022/04/16 12:31:07;;;;;;;2.63;1.20;;;;;;;;;;5050051;28;20195;-74
2022/04/16 12:33:39;;;;;;;1.65;1.40;;;;;;;;;;5047145;28;20228;-74
2022/04/16 12:36:08;;;;;;;1.35;1.25;;;;;;;;;;5049370;28;20269;-75
2022/04/16 12:38:37;;;;;;;1.77;1.65;;;;;;;;;;5048253;28;20238;-74
2022/04/16 12:41:08;;;;;;;1.50;1.37;;;;;;;;;;5036870;28;20650;-75
2022/04/16 12:43:37;;;;;;;2.28;1.67;;;;;;;;;;5049443;28;20617;-74
2022/04/16 12:46:05;;;;;;;5.30;1.70;;;;;;;;;;5050551;28;20689;-75
2022/04/16 12:48:34;;;;;;;2.40;1.43;;;;;;;;;;5048266;28;20227;-74
2022/04/16 12:51:02;;;;;;;2.33;1.60;;;;;;;;;;5038122;28;20253;-75
2022/04/16 12:53:31;;;;;;;2.47;1.70;;;;;;;;;;5050622;28;20211;-74
2022/04/16 12:56:00;;;;;;;2.63;1.70;;;;;;;;;;5045993;28;20210;-75
2022/04/16 12:58:30;;;;;;;2.30;1.30;;;;;;;;;;5050108;28;20223;-74
2022/04/16 13:00:58;;;;;;;2.13;1.30;;;;;;;;;;5045140;28;20197;-74
2022/04/16 13:03:27;;;;;;;5.70;1.67;;;;;;;;;;5048720;28;20199;-74
2022/04/16 13:05:56;;;;;;;1.93;1.50;;;;;;;;;;5050192;28;20286;-74
2022/04/16 13:08:25;;;;;;;2.37;1.30;;;;;;;;;;5033342;28;20224;-75
2022/04/16 13:11:11;;;;;;;3.03;1.50;;;;;;;;;;5043815;28;20273;-74
2022/04/16 13:13:42;;;;;;;2.27;1.40;;;;;;;;;;5052518;28;20215;-75
2022/04/16 13:16:10;;;;;;;1.83;1.40;;;;;;;;;;5048585;28;20564;-74
2022/04/16 13:18:40;;;;;;;1.63;1.50;;;;;;;;;;5049601;28;20226;-75
2022/04/16 13:21:08;;;;;;;1.30;1.20;;;;;;;;;;5050027;28;20646;-74
2022/04/16 13:23:37;;;;;;;1.50;1.40;;;;;;;;;;5050011;28;20613;-75
2022/04/16 13:26:05;;;;;;;1.80;1.40;;;;;;;;;;5050366;28;20214;-75
2022/04/16 13:28:34;;;;;;;1.80;1.40;;;;;;;;;;5049203;28;20231;-74
2022/04/16 13:31:03;;;;;;;1.97;1.50;;;;;;;;;;5048545;28;20199;-75
2022/04/16 13:33:32;;;;;;;1.80;1.60;;;;;;;;;;5039660;28;20710;-74
2022/04/16 13:36:02;;;;;;;1.80;1.40;;;;;;;;;;5043773;28;20602;-75
2022/04/16 13:38:30;;;;;;;3.17;1.70;;;;;;;;;;5033643;28;20231;-74
2022/04/16 13:43:45;;;;;;;3.03;1.57;;;;;;;;;;5045990;28;20199;-75
2022/04/16 13:46:19;;;;;;;5.07;1.60;;;;;;;;;;5049417;28;20206;-76
2022/04/16 13:48:48;;;;;;;2.10;1.60;;;;;;;;;;5049367;28;20207;-75
2022/04/16 13:51:17;;;;;;;2.87;1.80;;;;;;;;;;5049112;28;20260;-76
2022/04/16 13:53:45;;;;;;;2.27;1.70;;;;;;;;;;5049151;28;20280;-75
2022/04/16 13:56:13;;;;;;;1.83;1.47;;;;;;;;;;5050146;28;20284;-74
2022/04/16 13:58:42;;;;;;;1.70;1.57;;;;;;;;;;5049946;28;20227;-75
2022/04/16 14:01:13;;;;;;;1.93;1.50;;;;;;;;;;5049121;28;20210;-75
2022/04/16 14:03:44;;;;;;;1.43;1.33;;;;;;;;;;5051811;28;20213;-75
2022/04/16 14:06:13;;;;;;;2.40;1.50;;;;;;;;;;5052520;28;20876;-74
2022/04/16 14:08:42;;;;;;;1.40;1.30;;;;;;;;;;5052982;28;20759;-75
2022/04/16 14:11:11;;;;;;;1.70;1.40;;;;;;;;;;5052742;28;20203;-74
2022/04/16 14:13:39;;;;;;;2.30;1.60;;;;;;;;;;5053827;28;20207;-73
2022/04/16 14:16:10;;;;;;;2.00;1.63;;;;;;;;;;5053643;28;20294;-74
2022/04/16 14:18:38;;;;;;;2.13;1.60;;;;;;;;;;5033735;28;20265;-74
2022/04/16 14:21:08;;;;;;;2.10;1.50;;;;;;;;;;5043763;28;20616;-74
2022/04/16 14:23:37;;;;;;;2.70;1.60;;;;;;;;;;5051701;28;20203;-74
2022/04/16 14:26:06;;;;;;;1.37;1.27;;;;;;;;;;5052914;28;20218;-74
2022/04/16 14:28:36;;;;;;;2.67;1.40;;;;;;;;;;5051492;28;20273;-73
2022/04/16 14:31:35;;;;;;;1.30;1.20;;;;;;;;;;5055488;28;20199;-73
2022/04/16 14:37:35;;;;;;;3.50;1.43;;;;;;;;;;5050355;28;20205;-74
2022/04/16 14:40:04;;;;;;;1.63;1.37;;;;;;;;;;5051403;28;20214;-74
2022/04/16 14:42:33;;;;;;;1.60;1.50;;;;;;;;;;5048136;28;20238;-74
2022/04/16 14:45:02;;;;;;;2.33;1.53;;;;;;;;;;5047692;28;20214;-73
2022/04/16 14:47:31;;;;;;;2.00;1.53;;;;;;;;;;5050431;28;20584;-74
2022/04/16 14:50:01;;;;;;;6.13;1.53;;;;;;;;;;5041101;28;20227;-74
2022/04/16 14:52:30;;;;;;;1.40;1.30;;;;;;;;;;5044852;28;20202;-73
2022/04/16 14:55:00;;;;;;;2.40;1.70;;;;;;;;;;5044538;28;20818;-74
2022/04/16 14:57:36;;;;;;;1.53;1.43;;;;;;;;;;5049507;28;20256;-73
2022/04/16 15:00:07;;;;;;;3.47;1.60;;;;;;;;;;5046124;28;20214;-72
2022/04/16 15:02:36;;;;;;;1.93;1.63;;;;;;;;;;5040290;28;20211;-74
2022/04/16 15:05:05;;;;;;;2.77;1.63;;;;;;;;;;5045873;28;20206;-73
2022/04/16 15:07:33;;;;;;;3.47;1.60;;;;;;;;;;5040327;28;20309;-74
2022/04/16 15:10:03;;;;;;;2.13;1.57;;;;;;;;;;5045608;28;20647;-73
2022/04/16 15:12:31;;;;;;;2.30;1.50;;;;;;;;;;5046912;28;20663;-74
2022/04/16 15:15:00;;;;;;;3.07;1.80;;;;;;;;;;5042892;28;20219;-73
2022/04/16 15:17:28;;;;;;;2.27;1.47;;;;;;;;;;5042661;28;20634;-73
2022/04/16 15:19:57;;;;;;;2.53;1.50;;;;;;;;;;5052219;28;20543;-73
2022/04/16 15:22:25;;;;;;;2.00;1.80;;;;;;;;;;5052217;28;20604;-74
2022/04/16 15:24:54;;;;;;;1.50;1.40;;;;;;;;;;5052187;28;20207;-73